CTH5 weather

Harrington Harbour Heliport
Harrington Harbour, Quebec, Canada

Public forecast

Using degrees Celsius for public forecast. Weather courtesy of forecast.io.

METAR (pilot weather report)

Closest report is Natashquan Airport, 90.3 nm (167.3 km) W. Retrieved 2019/07/19 12:00 UTC (6 minutes ago):

CYNA 191200Z AUTO 35004KT 320V030 9SM BKN180 20/11 A2977 RMK SLP082 DENSITY ALT 700FT

TAF (pilot weather forecast)

Closest forecast is Natashquan Airport, 90.3 nm (167.3 km) W. Retrieved 2019/07/19 08:00 UTC (4 hours ago):

TAF CYNA 190738Z 1908/1920 VRB03KT P6SM SKC TEMPO 1908/1912 2SM BR FM191500 20010KT P6SM SCT150 RMK FCST BASED ON AUTO OBS. NXT FCST BY 191400Z